sensor_id;sensor_type;location;lat;lon;timestamp;P1;durP1;ratioP1;P2;durP2;ratioP2
20441;SDS011;10380;52.102;20.614;2023-04-29T00:01:30;14.70;;;10.13;;
20441;SDS011;10380;52.102;20.614;2023-04-29T00:03:57;14.50;;;9.30;;
20441;SDS011;10380;52.102;20.614;2023-04-29T00:06:24;15.07;;;10.07;;
20441;SDS011;10380;52.102;20.614;2023-04-29T00:08:51;11.20;;;8.90;;
20441;SDS011;10380;52.102;20.614;2023-04-29T00:11:18;15.57;;;10.47;;
20441;SDS011;10380;52.102;20.614;2023-04-29T00:13:45;15.93;;;9.53;;
20441;SDS011;10380;52.102;20.614;2023-04-29T00:16:12;14.43;;;9.37;;
20441;SDS011;10380;52.102;20.614;2023-04-29T00:18:39;16.43;;;9.60;;
20441;SDS011;10380;52.102;20.614;2023-04-29T00:21:06;13.43;;;8.97;;
20441;SDS011;10380;52.102;20.614;2023-04-29T00:23:33;13.27;;;9.50;;
20441;SDS011;10380;52.102;20.614;2023-04-29T00:26:00;14.77;;;9.83;;
20441;SDS011;10380;52.102;20.614;2023-04-29T00:28:27;14.60;;;9.10;;
20441;SDS011;10380;52.102;20.614;2023-04-29T00:30:55;12.03;;;8.53;;
20441;SDS011;10380;52.102;20.614;2023-04-29T00:33:22;14.77;;;9.60;;
20441;SDS011;10380;52.102;20.614;2023-04-29T00:35:49;16.40;;;9.80;;
20441;SDS011;10380;52.102;20.614;2023-04-29T00:38:23;14.07;;;9.40;;
20441;SDS011;10380;52.102;20.614;2023-04-29T00:40:50;12.93;;;8.97;;
20441;SDS011;10380;52.102;20.614;2023-04-29T00:43:17;12.00;;;7.87;;
20441;SDS011;10380;52.102;20.614;2023-04-29T00:45:45;15.80;;;9.43;;
20441;SDS011;10380;52.102;20.614;2023-04-29T00:48:12;14.93;;;9.67;;
20441;SDS011;10380;52.102;20.614;2023-04-29T00:50:40;16.17;;;8.63;;
20441;SDS011;10380;52.102;20.614;2023-04-29T00:53:08;10.73;;;8.47;;
20441;SDS011;10380;52.102;20.614;2023-04-29T00:55:38;14.17;;;9.20;;
20441;SDS011;10380;52.102;20.614;2023-04-29T00:58:07;13.10;;;8.37;;
20441;SDS011;10380;52.102;20.614;2023-04-29T01:00:36;12.73;;;8.43;;
20441;SDS011;10380;52.102;20.614;2023-04-29T01:03:03;11.50;;;8.90;;
20441;SDS011;10380;52.102;20.614;2023-04-29T01:05:31;15.20;;;8.90;;
20441;SDS011;10380;52.102;20.614;2023-04-29T01:13:43;16.03;;;8.80;;
20441;SDS011;10380;52.102;20.614;2023-04-29T01:16:18;16.63;;;9.23;;
20441;SDS011;10380;52.102;20.614;2023-04-29T01:18:54;10.83;;;8.20;;
20441;SDS011;10380;52.102;20.614;2023-04-29T01:21:24;14.63;;;9.10;;
20441;SDS011;10380;52.102;20.614;2023-04-29T01:23:51;14.47;;;8.60;;
20441;SDS011;10380;52.102;20.614;2023-04-29T01:26:22;11.13;;;8.07;;
20441;SDS011;10380;52.102;20.614;2023-04-29T01:31:54;13.17;;;8.50;;
20441;SDS011;10380;52.102;20.614;2023-04-29T01:37:48;12.77;;;8.43;;
20441;SDS011;10380;52.102;20.614;2023-04-29T01:40:25;12.87;;;8.20;;
20441;SDS011;10380;52.102;20.614;2023-04-29T01:45:26;13.73;;;9.00;;
20441;SDS011;10380;52.102;20.614;2023-04-29T01:47:55;13.23;;;8.37;;
20441;SDS011;10380;52.102;20.614;2023-04-29T01:50:24;12.77;;;8.23;;
20441;SDS011;10380;52.102;20.614;2023-04-29T01:52:51;10.73;;;8.07;;
20441;SDS011;10380;52.102;20.614;2023-04-29T01:55:18;12.93;;;8.17;;
20441;SDS011;10380;52.102;20.614;2023-04-29T01:57:45;11.97;;;8.17;;
20441;SDS011;10380;52.102;20.614;2023-04-29T02:00:12;11.20;;;8.27;;
20441;SDS011;10380;52.102;20.614;2023-04-29T02:02:38;14.00;;;8.30;;
20441;SDS011;10380;52.102;20.614;2023-04-29T02:05:07;12.00;;;8.30;;
20441;SDS011;10380;52.102;20.614;2023-04-29T02:07:37;11.90;;;8.37;;
20441;SDS011;10380;52.102;20.614;2023-04-29T02:10:05;16.30;;;9.10;;
20441;SDS011;10380;52.102;20.614;2023-04-29T02:12:32;12.80;;;8.73;;
20441;SDS011;10380;52.102;20.614;2023-04-29T02:15:00;12.93;;;8.77;;
20441;SDS011;10380;52.102;20.614;2023-04-29T02:17:27;11.93;;;8.33;;
20441;SDS011;10380;52.102;20.614;2023-04-29T02:19:54;13.67;;;9.37;;
20441;SDS011;10380;52.102;20.614;2023-04-29T02:22:21;15.00;;;8.17;;
20441;SDS011;10380;52.102;20.614;2023-04-29T02:24:48;14.30;;;8.37;;
20441;SDS011;10380;52.102;20.614;2023-04-29T02:27:15;12.93;;;8.83;;
20441;SDS011;10380;52.102;20.614;2023-04-29T02:29:42;11.97;;;8.50;;
20441;SDS011;10380;52.102;20.614;2023-04-29T02:32:09;15.27;;;9.10;;
20441;SDS011;10380;52.102;20.614;2023-04-29T02:34:36;12.30;;;8.37;;
20441;SDS011;10380;52.102;20.614;2023-04-29T02:37:03;13.03;;;8.30;;
20441;SDS011;10380;52.102;20.614;2023-04-29T02:39:30;15.80;;;9.73;;
20441;SDS011;10380;52.102;20.614;2023-04-29T02:41:57;14.17;;;8.80;;
20441;SDS011;10380;52.102;20.614;2023-04-29T02:44:24;11.17;;;8.53;;
20441;SDS011;10380;52.102;20.614;2023-04-29T02:46:51;12.53;;;8.60;;
20441;SDS011;10380;52.102;20.614;2023-04-29T02:49:18;13.80;;;9.10;;
20441;SDS011;10380;52.102;20.614;2023-04-29T02:51:45;14.27;;;8.57;;
20441;SDS011;10380;52.102;20.614;2023-04-29T02:54:16;11.27;;;7.47;;
20441;SDS011;10380;52.102;20.614;2023-04-29T02:56:43;10.37;;;8.30;;
20441;SDS011;10380;52.102;20.614;2023-04-29T02:59:10;9.50;;;8.03;;
20441;SDS011;10380;52.102;20.614;2023-04-29T03:01:36;10.03;;;8.37;;
20441;SDS011;10380;52.102;20.614;2023-04-29T03:04:04;10.93;;;7.93;;
20441;SDS011;10380;52.102;20.614;2023-04-29T03:06:32;9.93;;;7.97;;
20441;SDS011;10380;52.102;20.614;2023-04-29T03:08:59;15.17;;;8.20;;
20441;SDS011;10380;52.102;20.614;2023-04-29T03:11:26;11.93;;;7.80;;
20441;SDS011;10380;52.102;20.614;2023-04-29T03:13:53;11.50;;;8.30;;
20441;SDS011;10380;52.102;20.614;2023-04-29T03:16:20;11.17;;;7.53;;
20441;SDS011;10380;52.102;20.614;2023-04-29T03:18:48;11.63;;;8.07;;
20441;SDS011;10380;52.102;20.614;2023-04-29T03:21:16;13.23;;;8.00;;
20441;SDS011;10380;52.102;20.614;2023-04-29T03:23:43;13.90;;;8.27;;
20441;SDS011;10380;52.102;20.614;2023-04-29T03:26:10;10.30;;;7.30;;
20441;SDS011;10380;52.102;20.614;2023-04-29T03:28:38;11.47;;;7.67;;
20441;SDS011;10380;52.102;20.614;2023-04-29T03:31:05;10.10;;;8.03;;
20441;SDS011;10380;52.102;20.614;2023-04-29T03:33:33;11.50;;;7.60;;
20441;SDS011;10380;52.102;20.614;2023-04-29T03:36:00;14.13;;;7.93;;
20441;SDS011;10380;52.102;20.614;2023-04-29T03:38:28;12.17;;;8.27;;
20441;SDS011;10380;52.102;20.614;2023-04-29T03:40:55;9.63;;;6.73;;
20441;SDS011;10380;52.102;20.614;2023-04-29T03:43:23;12.97;;;7.47;;
20441;SDS011;10380;52.102;20.614;2023-04-29T03:45:50;12.23;;;8.17;;
20441;SDS011;10380;52.102;20.614;2023-04-29T03:48:18;11.27;;;8.23;;
20441;SDS011;10380;52.102;20.614;2023-04-29T03:50:45;10.03;;;7.17;;
20441;SDS011;10380;52.102;20.614;2023-04-29T03:53:13;13.20;;;7.60;;
20441;SDS011;10380;52.102;20.614;2023-04-29T03:55:40;9.97;;;7.27;;
20441;SDS011;10380;52.102;20.614;2023-04-29T03:58:08;14.60;;;7.50;;
20441;SDS011;10380;52.102;20.614;2023-04-29T04:00:35;10.23;;;7.20;;
20441;SDS011;10380;52.102;20.614;2023-04-29T04:03:02;13.67;;;8.60;;
20441;SDS011;10380;52.102;20.614;2023-04-29T04:05:31;9.87;;;7.50;;
20441;SDS011;10380;52.102;20.614;2023-04-29T04:07:58;14.60;;;7.70;;
20441;SDS011;10380;52.102;20.614;2023-04-29T04:10:28;10.63;;;8.00;;
20441;SDS011;10380;52.102;20.614;2023-04-29T04:12:55;10.47;;;7.67;;
20441;SDS011;10380;52.102;20.614;2023-04-29T04:15:22;10.37;;;7.23;;
20441;SDS011;10380;52.102;20.614;2023-04-29T04:17:49;9.10;;;7.00;;
20441;SDS011;10380;52.102;20.614;2023-04-29T04:20:16;11.93;;;6.83;;
20441;SDS011;10380;52.102;20.614;2023-04-29T04:22:43;8.70;;;7.23;;
20441;SDS011;10380;52.102;20.614;2023-04-29T04:25:10;11.53;;;6.73;;
20441;SDS011;10380;52.102;20.614;2023-04-29T04:27:39;13.50;;;7.17;;
20441;SDS011;10380;52.102;20.614;2023-04-29T04:30:08;9.60;;;6.70;;
20441;SDS011;10380;52.102;20.614;2023-04-29T04:32:35;11.03;;;7.10;;
20441;SDS011;10380;52.102;20.614;2023-04-29T04:35:10;10.50;;;7.83;;
20441;SDS011;10380;52.102;20.614;2023-04-29T04:37:37;13.67;;;7.70;;
20441;SDS011;10380;52.102;20.614;2023-04-29T04:40:04;8.37;;;6.60;;
20441;SDS011;10380;52.102;20.614;2023-04-29T04:42:32;13.03;;;6.83;;
20441;SDS011;10380;52.102;20.614;2023-04-29T04:44:59;11.90;;;6.73;;
20441;SDS011;10380;52.102;20.614;2023-04-29T04:47:26;13.83;;;7.80;;
20441;SDS011;10380;52.102;20.614;2023-04-29T04:49:53;8.50;;;6.60;;
20441;SDS011;10380;52.102;20.614;2023-04-29T04:52:20;13.07;;;8.50;;
20441;SDS011;10380;52.102;20.614;2023-04-29T04:54:48;9.47;;;6.93;;
20441;SDS011;10380;52.102;20.614;2023-04-29T04:57:14;10.47;;;6.83;;
20441;SDS011;10380;52.102;20.614;2023-04-29T04:59:41;12.90;;;7.83;;
20441;SDS011;10380;52.102;20.614;2023-04-29T05:02:09;12.60;;;7.00;;
20441;SDS011;10380;52.102;20.614;2023-04-29T05:04:37;10.63;;;6.67;;
20441;SDS011;10380;52.102;20.614;2023-04-29T05:07:04;13.53;;;6.93;;
20441;SDS011;10380;52.102;20.614;2023-04-29T05:09:33;9.37;;;6.80;;
20441;SDS011;10380;52.102;20.614;2023-04-29T05:12:00;13.87;;;7.30;;
20441;SDS011;10380;52.102;20.614;2023-04-29T05:14:28;11.37;;;7.40;;
20441;SDS011;10380;52.102;20.614;2023-04-29T05:16:58;9.20;;;7.10;;
20441;SDS011;10380;52.102;20.614;2023-04-29T05:19:25;11.33;;;6.47;;
20441;SDS011;10380;52.102;20.614;2023-04-29T05:21:52;10.37;;;6.40;;
20441;SDS011;10380;52.102;20.614;2023-04-29T05:24:19;8.67;;;6.20;;
20441;SDS011;10380;52.102;20.614;2023-04-29T05:26:48;11.73;;;6.73;;
20441;SDS011;10380;52.102;20.614;2023-04-29T05:29:19;10.90;;;6.63;;
20441;SDS011;10380;52.102;20.614;2023-04-29T05:31:46;14.17;;;7.20;;
20441;SDS011;10380;52.102;20.614;2023-04-29T05:34:13;8.77;;;6.57;;
20441;SDS011;10380;52.102;20.614;2023-04-29T05:36:40;8.23;;;6.50;;
20441;SDS011;10380;52.102;20.614;2023-04-29T05:39:08;8.67;;;6.43;;
20441;SDS011;10380;52.102;20.614;2023-04-29T05:41:35;10.50;;;6.67;;
20441;SDS011;10380;52.102;20.614;2023-04-29T05:44:02;6.70;;;5.73;;
20441;SDS011;10380;52.102;20.614;2023-04-29T05:46:30;7.87;;;5.73;;
20441;SDS011;10380;52.102;20.614;2023-04-29T05:48:57;7.97;;;6.70;;
20441;SDS011;10380;52.102;20.614;2023-04-29T05:51:24;10.40;;;7.00;;
20441;SDS011;10380;52.102;20.614;2023-04-29T05:53:55;11.97;;;7.07;;
20441;SDS011;10380;52.102;20.614;2023-04-29T05:56:26;7.00;;;5.87;;
20441;SDS011;10380;52.102;20.614;2023-04-29T05:58:57;8.73;;;6.50;;
20441;SDS011;10380;52.102;20.614;2023-04-29T06:01:30;8.27;;;6.77;;
20441;SDS011;10380;52.102;20.614;2023-04-29T06:03:58;7.80;;;5.53;;
20441;SDS011;10380;52.102;20.614;2023-04-29T06:06:25;10.07;;;6.43;;
20441;SDS011;10380;52.102;20.614;2023-04-29T06:08:59;10.07;;;5.70;;
20441;SDS011;10380;52.102;20.614;2023-04-29T06:11:26;10.33;;;5.83;;
20441;SDS011;10380;52.102;20.614;2023-04-29T06:13:54;6.83;;;5.40;;
20441;SDS011;10380;52.102;20.614;2023-04-29T06:16:23;9.50;;;5.70;;
20441;SDS011;10380;52.102;20.614;2023-04-29T06:18:51;12.93;;;5.90;;
20441;SDS011;10380;52.102;20.614;2023-04-29T06:21:20;13.93;;;5.97;;
20441;SDS011;10380;52.102;20.614;2023-04-29T06:23:49;10.37;;;6.43;;
20441;SDS011;10380;52.102;20.614;2023-04-29T06:26:17;7.97;;;6.07;;
20441;SDS011;10380;52.102;20.614;2023-04-29T06:28:48;12.07;;;6.10;;
20441;SDS011;10380;52.102;20.614;2023-04-29T06:31:15;9.50;;;5.50;;
20441;SDS011;10380;52.102;20.614;2023-04-29T06:33:42;8.93;;;5.87;;
20441;SDS011;10380;52.102;20.614;2023-04-29T06:36:09;12.83;;;7.13;;
20441;SDS011;10380;52.102;20.614;2023-04-29T06:38:36;11.80;;;6.00;;
20441;SDS011;10380;52.102;20.614;2023-04-29T06:41:06;6.63;;;5.03;;
20441;SDS011;10380;52.102;20.614;2023-04-29T06:43:33;8.37;;;5.37;;
20441;SDS011;10380;52.102;20.614;2023-04-29T06:46:07;9.23;;;5.43;;
20441;SDS011;10380;52.102;20.614;2023-04-29T06:48:53;10.52;;;5.68;;
20441;SDS011;10380;52.102;20.614;2023-04-29T06:51:20;7.73;;;5.23;;
20441;SDS011;10380;52.102;20.614;2023-04-29T06:53:47;11.23;;;5.70;;
20441;SDS011;10380;52.102;20.614;2023-04-29T06:56:14;8.03;;;4.97;;
20441;SDS011;10380;52.102;20.614;2023-04-29T06:58:43;8.43;;;5.33;;
20441;SDS011;10380;52.102;20.614;2023-04-29T07:01:12;8.60;;;5.03;;
20441;SDS011;10380;52.102;20.614;2023-04-29T07:03:39;6.57;;;4.55;;
20441;SDS011;10380;52.102;20.614;2023-04-29T07:06:08;8.60;;;5.05;;
20441;SDS011;10380;52.102;20.614;2023-04-29T07:08:35;6.78;;;4.75;;
20441;SDS011;10380;52.102;20.614;2023-04-29T07:11:02;9.88;;;5.03;;
20441;SDS011;10380;52.102;20.614;2023-04-29T07:13:30;7.95;;;4.90;;
20441;SDS011;10380;52.102;20.614;2023-04-29T07:15:57;6.38;;;4.38;;
20441;SDS011;10380;52.102;20.614;2023-04-29T07:18:24;7.30;;;4.68;;
20441;SDS011;10380;52.102;20.614;2023-04-29T07:20:51;10.18;;;4.53;;
20441;SDS011;10380;52.102;20.614;2023-04-29T07:23:18;6.25;;;4.55;;
20441;SDS011;10380;52.102;20.614;2023-04-29T07:25:46;5.97;;;3.90;;
20441;SDS011;10380;52.102;20.614;2023-04-29T07:28:15;6.28;;;3.88;;
20441;SDS011;10380;52.102;20.614;2023-04-29T07:30:42;9.77;;;5.57;;
20441;SDS011;10380;52.102;20.614;2023-04-29T07:33:10;6.40;;;4.22;;
20441;SDS011;10380;52.102;20.614;2023-04-29T07:35:39;7.20;;;4.25;;
20441;SDS011;10380;52.102;20.614;2023-04-29T07:38:08;7.85;;;4.40;;
20441;SDS011;10380;52.102;20.614;2023-04-29T07:40:42;6.75;;;4.68;;
20441;SDS011;10380;52.102;20.614;2023-04-29T07:43:12;9.95;;;4.10;;
20441;SDS011;10380;52.102;20.614;2023-04-29T07:45:45;6.15;;;4.13;;
20441;SDS011;10380;52.102;20.614;2023-04-29T07:48:11;8.00;;;4.50;;
20441;SDS011;10380;52.102;20.614;2023-04-29T07:50:38;9.15;;;5.07;;
20441;SDS011;10380;52.102;20.614;2023-04-29T07:53:05;6.88;;;4.32;;
20441;SDS011;10380;52.102;20.614;2023-04-29T07:55:33;7.07;;;4.57;;
20441;SDS011;10380;52.102;20.614;2023-04-29T07:58:03;8.10;;;4.07;;
20441;SDS011;10380;52.102;20.614;2023-04-29T08:00:32;12.07;;;4.38;;
20441;SDS011;10380;52.102;20.614;2023-04-29T08:02:59;5.90;;;4.07;;
20441;SDS011;10380;52.102;20.614;2023-04-29T08:05:29;5.97;;;4.20;;
20441;SDS011;10380;52.102;20.614;2023-04-29T08:07:57;7.63;;;4.55;;
20441;SDS011;10380;52.102;20.614;2023-04-29T08:10:26;8.10;;;4.32;;
20441;SDS011;10380;52.102;20.614;2023-04-29T08:12:53;6.53;;;3.90;;
20441;SDS011;10380;52.102;20.614;2023-04-29T08:15:23;5.68;;;3.78;;
20441;SDS011;10380;52.102;20.614;2023-04-29T08:17:50;7.88;;;4.80;;
20441;SDS011;10380;52.102;20.614;2023-04-29T08:20:18;7.78;;;4.38;;
20441;SDS011;10380;52.102;20.614;2023-04-29T08:22:45;10.85;;;4.68;;
20441;SDS011;10380;52.102;20.614;2023-04-29T08:25:12;10.57;;;4.55;;
20441;SDS011;10380;52.102;20.614;2023-04-29T08:27:39;8.82;;;4.82;;
20441;SDS011;10380;52.102;20.614;2023-04-29T08:30:09;9.27;;;4.30;;
20441;SDS011;10380;52.102;20.614;2023-04-29T08:32:38;5.25;;;4.60;;
20441;SDS011;10380;52.102;20.614;2023-04-29T08:35:05;9.40;;;4.50;;
20441;SDS011;10380;52.102;20.614;2023-04-29T08:37:32;5.38;;;4.05;;
20441;SDS011;10380;52.102;20.614;2023-04-29T08:39:59;7.50;;;4.22;;
20441;SDS011;10380;52.102;20.614;2023-04-29T08:42:36;5.22;;;4.22;;
20441;SDS011;10380;52.102;20.614;2023-04-29T08:45:03;7.68;;;4.80;;
20441;SDS011;10380;52.102;20.614;2023-04-29T08:47:31;8.77;;;4.45;;
20441;SDS011;10380;52.102;20.614;2023-04-29T08:50:02;7.10;;;4.35;;
20441;SDS011;10380;52.102;20.614;2023-04-29T08:52:30;5.80;;;3.60;;
20441;SDS011;10380;52.102;20.614;2023-04-29T08:54:58;7.35;;;4.28;;
20441;SDS011;10380;52.102;20.614;2023-04-29T08:57:28;8.38;;;4.07;;
20441;SDS011;10380;52.102;20.614;2023-04-29T09:00:05;8.20;;;4.18;;
20441;SDS011;10380;52.102;20.614;2023-04-29T09:02:40;5.32;;;4.00;;
20441;SDS011;10380;52.102;20.614;2023-04-29T09:05:11;8.95;;;4.30;;
20441;SDS011;10380;52.102;20.614;2023-04-29T09:07:38;6.80;;;4.13;;
20441;SDS011;10380;52.102;20.614;2023-04-29T09:10:07;7.60;;;4.68;;
20441;SDS011;10380;52.102;20.614;2023-04-29T09:12:34;10.38;;;4.45;;
20441;SDS011;10380;52.102;20.614;2023-04-29T09:15:02;6.10;;;4.25;;
20441;SDS011;10380;52.102;20.614;2023-04-29T09:20:25;5.90;;;3.88;;
20441;SDS011;10380;52.102;20.614;2023-04-29T09:22:55;7.95;;;3.72;;
20441;SDS011;10380;52.102;20.614;2023-04-29T09:25:27;5.75;;;3.67;;
20441;SDS011;10380;52.102;20.614;2023-04-29T09:27:54;6.38;;;4.32;;
20441;SDS011;10380;52.102;20.614;2023-04-29T09:30:21;7.68;;;4.25;;
20441;SDS011;10380;52.102;20.614;2023-04-29T09:33:05;5.30;;;3.72;;
20441;SDS011;10380;52.102;20.614;2023-04-29T09:35:35;9.23;;;3.75;;
20441;SDS011;10380;52.102;20.614;2023-04-29T09:38:07;5.38;;;3.50;;
20441;SDS011;10380;52.102;20.614;2023-04-29T09:40:38;4.00;;;3.42;;
20441;SDS011;10380;52.102;20.614;2023-04-29T09:43:23;4.95;;;3.60;;
20441;SDS011;10380;52.102;20.614;2023-04-29T09:45:50;8.60;;;3.70;;
20441;SDS011;10380;52.102;20.614;2023-04-29T09:48:17;10.27;;;3.80;;
20441;SDS011;10380;52.102;20.614;2023-04-29T09:50:44;7.90;;;4.05;;
20441;SDS011;10380;52.102;20.614;2023-04-29T09:53:28;5.72;;;3.58;;
20441;SDS011;10380;52.102;20.614;2023-04-29T09:56:00;7.07;;;3.83;;
20441;SDS011;10380;52.102;20.614;2023-04-29T09:58:33;6.55;;;4.13;;
20441;SDS011;10380;52.102;20.614;2023-04-29T10:01:03;6.22;;;3.60;;
20441;SDS011;10380;52.102;20.614;2023-04-29T10:03:35;6.93;;;3.40;;
20441;SDS011;10380;52.102;20.614;2023-04-29T10:06:04;6.93;;;3.70;;
20441;SDS011;10380;52.102;20.614;2023-04-29T10:08:33;7.43;;;4.00;;
20441;SDS011;10380;52.102;20.614;2023-04-29T10:11:01;7.05;;;3.40;;
20441;SDS011;10380;52.102;20.614;2023-04-29T10:13:29;8.90;;;4.18;;
20441;SDS011;10380;52.102;20.614;2023-04-29T10:18:40;5.97;;;3.30;;
20441;SDS011;10380;52.102;20.614;2023-04-29T10:21:10;5.95;;;3.58;;
20441;SDS011;10380;52.102;20.614;2023-04-29T10:23:38;5.72;;;3.53;;
20441;SDS011;10380;52.102;20.614;2023-04-29T10:26:07;7.68;;;4.07;;
20441;SDS011;10380;52.102;20.614;2023-04-29T10:28:38;10.75;;;4.32;;
20441;SDS011;10380;52.102;20.614;2023-04-29T10:31:07;9.05;;;4.30;;
20441;SDS011;10380;52.102;20.614;2023-04-29T10:33:34;5.80;;;4.25;;
20441;SDS011;10380;52.102;20.614;2023-04-29T10:36:02;8.05;;;4.15;;
20441;SDS011;10380;52.102;20.614;2023-04-29T10:41:03;5.75;;;4.07;;
20441;SDS011;10380;52.102;20.614;2023-04-29T10:43:54;8.60;;;4.10;;
20441;SDS011;10380;52.102;20.614;2023-04-29T10:46:22;7.43;;;4.75;;
20441;SDS011;10380;52.102;20.614;2023-04-29T10:48:50;5.32;;;4.35;;
20441;SDS011;10380;52.102;20.614;2023-04-29T10:54:02;8.43;;;4.60;;
20441;SDS011;10380;52.102;20.614;2023-04-29T10:59:03;12.23;;;5.43;;
20441;SDS011;10380;52.102;20.614;2023-04-29T11:01:44;10.52;;;5.03;;
20441;SDS011;10380;52.102;20.614;2023-04-29T11:04:20;8.38;;;4.40;;
20441;SDS011;10380;52.102;20.614;2023-04-29T11:06:52;7.43;;;3.80;;
20441;SDS011;10380;52.102;20.614;2023-04-29T11:09:23;5.90;;;3.78;;
20441;SDS011;10380;52.102;20.614;2023-04-29T11:14:25;6.47;;;3.97;;
20441;SDS011;10380;52.102;20.614;2023-04-29T11:17:00;7.57;;;3.70;;
20441;SDS011;10380;52.102;20.614;2023-04-29T11:19:35;8.82;;;3.58;;
20441;SDS011;10380;52.102;20.614;2023-04-29T11:22:09;4.97;;;3.58;;
20441;SDS011;10380;52.102;20.614;2023-04-29T11:27:24;6.63;;;3.60;;
20441;SDS011;10380;52.102;20.614;2023-04-29T11:29:53;5.78;;;3.10;;
20441;SDS011;10380;52.102;20.614;2023-04-29T11:32:27;5.63;;;2.72;;
20441;SDS011;10380;52.102;20.614;2023-04-29T11:35:15;3.88;;;3.00;;
20441;SDS011;10380;52.102;20.614;2023-04-29T11:37:43;4.13;;;3.30;;
20441;SDS011;10380;52.102;20.614;2023-04-29T11:40:12;3.38;;;3.00;;
20441;SDS011;10380;52.102;20.614;2023-04-29T11:42:43;7.90;;;3.92;;
20441;SDS011;10380;52.102;20.614;2023-04-29T11:45:11;4.57;;;3.42;;
20441;SDS011;10380;52.102;20.614;2023-04-29T11:47:41;5.63;;;3.72;;
20441;SDS011;10380;52.102;20.614;2023-04-29T11:50:13;7.25;;;3.08;;
20441;SDS011;10380;52.102;20.614;2023-04-29T11:52:43;9.30;;;3.20;;
20441;SDS011;10380;52.102;20.614;2023-04-29T11:55:12;4.35;;;2.85;;
20441;SDS011;10380;52.102;20.614;2023-04-29T11:57:39;5.32;;;2.83;;
20441;SDS011;10380;52.102;20.614;2023-04-29T12:00:12;5.78;;;3.22;;
20441;SDS011;10380;52.102;20.614;2023-04-29T12:02:42;5.70;;;3.10;;
20441;SDS011;10380;52.102;20.614;2023-04-29T12:05:12;5.65;;;3.40;;
20441;SDS011;10380;52.102;20.614;2023-04-29T12:07:41;6.45;;;3.30;;
20441;SDS011;10380;52.102;20.614;2023-04-29T12:10:08;4.15;;;2.90;;
20441;SDS011;10380;52.102;20.614;2023-04-29T12:12:39;5.28;;;2.90;;
20441;SDS011;10380;52.102;20.614;2023-04-29T12:15:09;6.72;;;3.80;;
20441;SDS011;10380;52.102;20.614;2023-04-29T12:17:36;3.67;;;2.70;;
20441;SDS011;10380;52.102;20.614;2023-04-29T12:20:04;6.38;;;3.20;;
20441;SDS011;10380;52.102;20.614;2023-04-29T12:22:32;5.43;;;2.80;;
20441;SDS011;10380;52.102;20.614;2023-04-29T12:25:04;6.55;;;3.13;;
20441;SDS011;10380;52.102;20.614;2023-04-29T12:27:34;6.18;;;3.75;;
20441;SDS011;10380;52.102;20.614;2023-04-29T12:30:02;9.35;;;5.07;;
20441;SDS011;10380;52.102;20.614;2023-04-29T12:32:33;7.85;;;4.22;;
20441;SDS011;10380;52.102;20.614;2023-04-29T12:35:00;7.82;;;4.30;;
20441;SDS011;10380;52.102;20.614;2023-04-29T12:37:27;6.38;;;4.57;;
20441;SDS011;10380;52.102;20.614;2023-04-29T12:39:54;6.03;;;4.40;;
20441;SDS011;10380;52.102;20.614;2023-04-29T12:42:22;7.13;;;4.25;;
20441;SDS011;10380;52.102;20.614;2023-04-29T12:44:49;6.35;;;4.00;;
20441;SDS011;10380;52.102;20.614;2023-04-29T12:47:16;9.38;;;4.50;;
20441;SDS011;10380;52.102;20.614;2023-04-29T12:49:45;6.45;;;4.43;;
20441;SDS011;10380;52.102;20.614;2023-04-29T12:52:14;6.40;;;4.43;;
20441;SDS011;10380;52.102;20.614;2023-04-29T12:54:42;5.90;;;4.57;;
20441;SDS011;10380;52.102;20.614;2023-04-29T12:57:09;8.10;;;4.60;;
20441;SDS011;10380;52.102;20.614;2023-04-29T12:59:37;7.38;;;4.20;;
20441;SDS011;10380;52.102;20.614;2023-04-29T13:02:06;7.95;;;4.90;;
20441;SDS011;10380;52.102;20.614;2023-04-29T13:04:34;6.13;;;3.88;;
20441;SDS011;10380;52.102;20.614;2023-04-29T13:07:01;5.47;;;4.15;;
20441;SDS011;10380;52.102;20.614;2023-04-29T13:09:30;8.55;;;4.13;;
20441;SDS011;10380;52.102;20.614;2023-04-29T13:11:57;7.78;;;4.10;;
20441;SDS011;10380;52.102;20.614;2023-04-29T13:14:24;7.70;;;4.38;;
20441;SDS011;10380;52.102;20.614;2023-04-29T13:16:52;7.45;;;4.45;;
20441;SDS011;10380;52.102;20.614;2023-04-29T13:19:19;6.38;;;4.72;;
20441;SDS011;10380;52.102;20.614;2023-04-29T13:22:04;6.28;;;4.35;;
20441;SDS011;10380;52.102;20.614;2023-04-29T13:24:32;8.20;;;4.05;;
20441;SDS011;10380;52.102;20.614;2023-04-29T13:27:01;7.30;;;4.18;;
20441;SDS011;10380;52.102;20.614;2023-04-29T13:29:31;7.97;;;4.88;;
20441;SDS011;10380;52.102;20.614;2023-04-29T13:31:58;7.65;;;4.22;;
20441;SDS011;10380;52.102;20.614;2023-04-29T13:34:25;7.63;;;4.80;;
20441;SDS011;10380;52.102;20.614;2023-04-29T13:36:52;6.70;;;4.80;;
20441;SDS011;10380;52.102;20.614;2023-04-29T13:39:19;10.25;;;6.60;;
20441;SDS011;10380;52.102;20.614;2023-04-29T13:41:48;6.10;;;4.78;;
20441;SDS011;10380;52.102;20.614;2023-04-29T13:44:15;8.75;;;4.95;;
20441;SDS011;10380;52.102;20.614;2023-04-29T13:46:58;8.27;;;4.53;;
20441;SDS011;10380;52.102;20.614;2023-04-29T13:49:27;12.93;;;8.50;;
20441;SDS011;10380;52.102;20.614;2023-04-29T13:52:14;8.70;;;5.22;;
20441;SDS011;10380;52.102;20.614;2023-04-29T13:55:01;8.82;;;4.40;;
20441;SDS011;10380;52.102;20.614;2023-04-29T13:57:31;7.05;;;4.70;;
20441;SDS011;10380;52.102;20.614;2023-04-29T14:00:02;7.03;;;4.53;;
20441;SDS011;10380;52.102;20.614;2023-04-29T14:02:49;7.35;;;5.00;;
20441;SDS011;10380;52.102;20.614;2023-04-29T14:05:19;7.47;;;5.05;;
20441;SDS011;10380;52.102;20.614;2023-04-29T14:07:46;7.00;;;4.57;;
20441;SDS011;10380;52.102;20.614;2023-04-29T14:10:13;6.97;;;5.65;;
20441;SDS011;10380;52.102;20.614;2023-04-29T14:12:41;8.27;;;4.88;;
20441;SDS011;10380;52.102;20.614;2023-04-29T14:15:07;9.02;;;5.60;;
20441;SDS011;10380;52.102;20.614;2023-04-29T14:17:35;6.13;;;4.80;;
20441;SDS011;10380;52.102;20.614;2023-04-29T14:20:02;6.88;;;5.50;;
20441;SDS011;10380;52.102;20.614;2023-04-29T14:22:29;7.55;;;5.95;;
20441;SDS011;10380;52.102;20.614;2023-04-29T14:24:56;9.70;;;6.03;;
20441;SDS011;10380;52.102;20.614;2023-04-29T14:27:23;7.60;;;6.03;;
20441;SDS011;10380;52.102;20.614;2023-04-29T14:29:50;6.05;;;5.03;;
20441;SDS011;10380;52.102;20.614;2023-04-29T14:32:17;10.93;;;6.38;;
20441;SDS011;10380;52.102;20.614;2023-04-29T14:34:43;8.25;;;6.00;;
20441;SDS011;10380;52.102;20.614;2023-04-29T14:37:11;9.48;;;5.60;;
20441;SDS011;10380;52.102;20.614;2023-04-29T14:39:38;8.38;;;5.15;;
20441;SDS011;10380;52.102;20.614;2023-04-29T14:42:05;8.70;;;5.70;;
20441;SDS011;10380;52.102;20.614;2023-04-29T14:44:32;7.40;;;5.22;;
20441;SDS011;10380;52.102;20.614;2023-04-29T14:46:59;6.32;;;5.13;;
20441;SDS011;10380;52.102;20.614;2023-04-29T14:49:26;8.32;;;4.53;;
20441;SDS011;10380;52.102;20.614;2023-04-29T14:51:56;6.97;;;5.13;;
20441;SDS011;10380;52.102;20.614;2023-04-29T14:54:23;9.05;;;5.10;;
20441;SDS011;10380;52.102;20.614;2023-04-29T14:56:52;15.52;;;9.77;;
20441;SDS011;10380;52.102;20.614;2023-04-29T14:59:19;17.70;;;8.90;;
20441;SDS011;10380;52.102;20.614;2023-04-29T15:01:46;10.27;;;5.63;;
20441;SDS011;10380;52.102;20.614;2023-04-29T15:04:14;10.73;;;6.18;;
20441;SDS011;10380;52.102;20.614;2023-04-29T15:06:41;10.63;;;5.90;;
20441;SDS011;10380;52.102;20.614;2023-04-29T15:09:08;8.65;;;5.35;;
20441;SDS011;10380;52.102;20.614;2023-04-29T15:11:35;12.32;;;5.38;;